Time;durP1;ratioP1;P1;durP2;ratioP2;P2;SDS_P1;SDS_P2;PMS_P1;PMS_P2;Temp;Humidity;BMP_temperature;BMP_pressure;BME280_temperature;BME280_humidity;BME280_pressure;Samples;Min_cycle;Max_cycle;Signal;HPM_P1;HPM_P2
2022/11/27 00:01:26;;;;;;;15.60;13.40;;;4.80;99.90;;;;;;5026605;28;20598;-83
2022/11/27 00:03:53;;;;;;;17.43;15.67;;;4.80;99.90;;;;;;5027286;28;20197;-81
2022/11/27 00:06:21;;;;;;;15.10;13.60;;;4.80;99.90;;;;;;5026376;28;20182;-83
2022/11/27 00:08:47;;;;;;;13.20;11.90;;;4.80;99.90;;;;;;5027122;28;20178;-82
2022/11/27 00:11:16;;;;;;;12.03;10.77;;;4.80;99.90;;;;;;5027473;28;20304;-83
2022/11/27 00:13:42;;;;;;;11.33;10.23;;;4.90;99.90;;;;;;5027284;28;20200;-82
2022/11/27 00:16:08;;;;;;;11.57;10.47;;;4.90;99.90;;;;;;5027602;28;20185;-82
2022/11/27 00:18:35;;;;;;;12.37;11.17;;;5.00;99.90;;;;;;5023842;28;20193;-83
2022/11/27 00:21:21;;;;;;;12.97;11.40;;;5.00;99.90;;;;;;5027722;28;20343;-83
2022/11/27 00:23:48;;;;;;;14.10;11.33;;;5.00;99.90;;;;;;5027867;28;20201;-83
2022/11/27 00:26:13;;;;;;;12.03;10.87;;;4.90;99.90;;;;;;5031995;28;20273;-81
2022/11/27 00:28:40;;;;;;;20.70;12.50;;;4.80;99.90;;;;;;5026209;28;20683;-81
2022/11/27 00:31:12;;;;;;;16.67;11.00;;;4.80;99.90;;;;;;5022785;28;20264;-83
2022/11/27 00:33:38;;;;;;;18.23;13.63;;;4.80;99.90;;;;;;5022892;28;20225;-83
2022/11/27 00:36:05;;;;;;;16.67;12.00;;;4.60;99.90;;;;;;5025219;28;20236;-82
2022/11/27 00:38:32;;;;;;;17.57;10.50;;;4.60;99.90;;;;;;5027009;28;20336;-83
2022/11/27 00:41:04;;;;;;;11.17;10.07;;;4.60;99.90;;;;;;5027625;28;20296;-83
2022/11/27 00:43:29;;;;;;;14.53;10.00;;;4.60;99.90;;;;;;5028691;28;20189;-84
2022/11/27 00:45:55;;;;;;;13.10;9.27;;;4.50;99.90;;;;;;5027139;28;20245;-82
2022/11/27 00:48:21;;;;;;;10.63;8.67;;;4.40;99.90;;;;;;5028420;28;20289;-82
2022/11/27 00:50:46;;;;;;;8.00;7.27;;;4.30;99.90;;;;;;5010062;28;20209;-83
2022/11/27 00:53:12;;;;;;;8.07;7.27;;;4.30;99.90;;;;;;5016764;28;20185;-83
2022/11/27 00:55:38;;;;;;;22.90;7.23;;;4.20;99.90;;;;;;5010677;28;20276;-82
2022/11/27 00:58:04;;;;;;;11.07;7.30;;;4.20;99.90;;;;;;5028926;28;20193;-83
2022/11/27 01:00:29;;;;;;;7.70;7.03;;;4.00;99.90;;;;;;5027531;28;20303;-83
2022/11/27 01:02:55;;;;;;;8.83;8.03;;;4.00;99.90;;;;;;5028083;28;20194;-82
2022/11/27 01:05:21;;;;;;;9.70;8.80;;;4.10;99.90;;;;;;5028199;28;20186;-83
2022/11/27 01:07:47;;;;;;;19.47;12.47;;;4.30;99.90;;;;;;5026257;28;20169;-83
2022/11/27 01:10:12;;;;;;;11.40;7.87;;;4.30;99.90;;;;;;5028763;28;20190;-82
2022/11/27 01:12:38;;;;;;;8.90;8.10;;;4.30;99.90;;;;;;5028178;28;20221;-82
2022/11/27 01:15:04;;;;;;;10.20;7.70;;;4.10;99.90;;;;;;5029113;28;20177;-82
2022/11/27 01:17:30;;;;;;;8.90;8.00;;;4.00;99.90;;;;;;5027404;28;20188;-83
2022/11/27 01:19:56;;;;;;;9.13;8.23;;;4.10;99.90;;;;;;5028521;28;20228;-83
2022/11/27 01:22:22;;;;;;;8.87;8.07;;;4.20;99.90;;;;;;5029178;28;20197;-83
2022/11/27 01:24:47;;;;;;;9.50;8.60;;;4.40;99.90;;;;;;5027560;28;20209;-84
2022/11/27 01:27:13;;;;;;;13.50;11.40;;;4.50;99.90;;;;;;5026930;28;20194;-83
2022/11/27 01:29:39;;;;;;;11.33;10.07;;;4.60;99.90;;;;;;5005161;28;20190;-81
2022/11/27 01:32:05;;;;;;;12.60;10.27;;;4.60;99.90;;;;;;5026991;28;20205;-82
2022/11/27 01:34:31;;;;;;;9.67;8.50;;;4.70;99.90;;;;;;5026599;28;20200;-80
2022/11/27 01:36:56;;;;;;;9.27;8.37;;;4.70;99.90;;;;;;5026540;28;20185;-81
2022/11/27 01:39:23;;;;;;;9.50;8.43;;;4.80;99.90;;;;;;5027237;28;20263;-82
2022/11/27 01:41:49;;;;;;;8.77;7.80;;;4.90;99.90;;;;;;5028401;28;20213;-82
2022/11/27 01:44:24;;;;;;;8.50;7.70;;;5.00;99.90;;;;;;5026228;28;20186;-83
2022/11/27 01:47:02;;;;;;;8.33;7.53;;;5.00;99.90;;;;;;5025951;28;20531;-82
2022/11/27 01:49:27;;;;;;;9.60;8.67;;;5.00;99.90;;;;;;5009728;28;20189;-81
2022/11/27 01:52:08;;;;;;;10.07;9.17;;;5.10;99.90;;;;;;5026893;28;20271;-83
2022/11/27 01:54:40;;;;;;;9.37;8.27;;;5.10;99.90;;;;;;5010106;28;20183;-82
2022/11/27 01:57:22;;;;;;;9.20;8.30;;;5.10;99.90;;;;;;5008987;28;20181;-82
2022/11/27 01:59:50;;;;;;;9.47;8.50;;;4.90;99.90;;;;;;5006601;28;20204;-82
2022/11/27 02:02:17;;;;;;;8.93;8.10;;;4.70;99.90;;;;;;5025403;28;20272;-83
2022/11/27 02:04:42;;;;;;;8.77;7.67;;;4.70;99.90;;;;;;5026260;28;20186;-82
2022/11/27 02:07:08;;;;;;;8.97;8.07;;;4.80;99.90;;;;;;5008191;28;20177;-82
2022/11/27 02:09:34;;;;;;;13.83;9.03;;;4.90;99.90;;;;;;5026667;28;20228;-83
2022/11/27 02:12:09;;;;;;;9.23;8.33;;;4.70;99.90;;;;;;5027383;28;20216;-81
2022/11/27 02:14:51;;;;;;;9.47;8.47;;;4.80;99.90;;;;;;5026695;28;20264;-82
2022/11/27 02:17:21;;;;;;;9.07;8.17;;;4.80;99.90;;;;;;5023006;28;20208;-82
2022/11/27 02:20:24;;;;;;;9.50;8.33;;;4.90;99.90;;;;;;5025222;28;20193;-82
2022/11/27 02:22:59;;;;;;;8.67;7.77;;;4.80;99.90;;;;;;5025250;28;20180;-82
2022/11/27 02:25:24;;;;;;;8.43;7.57;;;4.90;99.90;;;;;;5027199;28;20205;-82
2022/11/27 02:28:08;;;;;;;8.60;7.80;;;5.00;99.90;;;;;;5028024;28;20181;-83
2022/11/27 02:30:40;;;;;;;9.87;8.87;;;5.10;99.90;;;;;;5026614;28;20216;-82
2022/11/27 02:33:10;;;;;;;8.57;7.77;;;5.20;99.90;;;;;;5027757;28;20189;-83
2022/11/27 02:36:02;;;;;;;9.13;8.23;;;5.30;99.90;;;;;;5026883;28;20182;-82
2022/11/27 02:38:33;;;;;;;13.60;8.13;;;5.00;99.90;;;;;;4993419;28;20340;-82
2022/11/27 02:41:21;;;;;;;9.37;8.47;;;4.70;99.90;;;;;;5026238;28;20214;-82
2022/11/27 02:43:50;;;;;;;12.60;7.83;;;4.60;99.90;;;;;;5027279;28;20181;-82
2022/11/27 02:46:18;;;;;;;9.27;7.80;;;4.60;99.90;;;;;;5027567;28;20173;-82
2022/11/27 02:48:50;;;;;;;8.80;7.93;;;4.60;99.90;;;;;;5026524;28;20177;-81
2022/11/27 02:51:20;;;;;;;8.73;7.93;;;4.70;99.90;;;;;;5023825;28;20574;-83
2022/11/27 02:53:55;;;;;;;10.43;7.87;;;4.80;99.90;;;;;;5027788;28;20188;-83
2022/11/27 02:56:25;;;;;;;6.93;6.33;;;4.80;99.90;;;;;;5025015;28;20196;-82
2022/11/27 02:58:54;;;;;;;7.80;6.93;;;4.80;99.90;;;;;;5027212;28;20182;-82
2022/11/27 03:01:22;;;;;;;8.67;7.73;;;4.70;99.90;;;;;;5014052;28;20283;-82
2022/11/27 03:03:51;;;;;;;7.67;6.97;;;4.60;99.90;;;;;;5031114;28;20184;-84
2022/11/27 03:06:23;;;;;;;11.47;7.13;;;4.50;99.90;;;;;;5032065;28;20212;-83
2022/11/27 03:08:55;;;;;;;7.63;6.53;;;4.40;99.90;;;;;;5028930;28;20184;-82
2022/11/27 03:11:21;;;;;;;8.53;7.67;;;4.40;99.90;;;;;;5026138;28;20213;-81
2022/11/27 03:13:52;;;;;;;8.03;7.33;;;4.40;99.90;;;;;;5029801;28;20221;-82
2022/11/27 03:16:56;;;;;;;7.83;7.03;;;4.50;99.90;;;;;;5030746;28;20184;-82
2022/11/27 03:19:59;;;;;;;10.73;7.67;;;4.50;99.90;;;;;;5028835;28;20235;-83
2022/11/27 03:22:27;;;;;;;7.87;6.97;;;4.50;99.90;;;;;;5027749;28;20193;-82
2022/11/27 03:24:53;;;;;;;8.67;7.03;;;4.30;99.90;;;;;;5026099;28;20220;-82
2022/11/27 03:27:25;;;;;;;7.77;6.97;;;4.30;99.90;;;;;;5037654;28;20197;-82
2022/11/27 03:29:55;;;;;;;7.87;7.10;;;4.40;99.90;;;;;;5030376;28;20208;-82
2022/11/27 03:32:21;;;;;;;8.03;7.23;;;4.50;99.90;;;;;;5028298;28;20212;-82
2022/11/27 03:34:48;;;;;;;13.80;6.97;;;4.60;99.90;;;;;;5027364;28;20178;-82
2022/11/27 03:37:14;;;;;;;7.67;6.87;;;4.50;99.90;;;;;;5027775;28;20273;-82
2022/11/27 03:39:40;;;;;;;7.73;6.93;;;4.60;99.90;;;;;;5027781;28;20180;-83
2022/11/27 03:42:11;;;;;;;9.00;7.30;;;4.50;99.90;;;;;;5026590;28;20248;-82
2022/11/27 03:44:56;;;;;;;7.17;6.37;;;4.50;99.90;;;;;;5010320;28;20190;-83
2022/11/27 03:47:31;;;;;;;7.17;6.50;;;4.40;99.90;;;;;;5029013;28;20208;-82
2022/11/27 03:50:38;;;;;;;8.47;7.10;;;4.50;99.90;;;;;;4999624;28;20279;-82
2022/11/27 03:53:24;;;;;;;9.43;7.20;;;4.50;99.90;;;;;;5021900;28;20182;-82
2022/11/27 03:56:12;;;;;;;7.77;6.97;;;4.60;99.90;;;;;;5027966;28;20185;-82
2022/11/27 03:58:53;;;;;;;16.00;7.77;;;4.60;99.90;;;;;;5026353;28;20185;-81
2022/11/27 04:01:21;;;;;;;7.90;7.10;;;4.80;99.90;;;;;;5009624;28;20225;-82
2022/11/27 04:03:47;;;;;;;7.20;6.50;;;4.80;99.90;;;;;;5028006;28;20174;-82
2022/11/27 04:06:13;;;;;;;7.97;7.17;;;4.90;99.90;;;;;;5028735;28;20190;-82
2022/11/27 04:08:38;;;;;;;8.23;7.17;;;5.00;99.90;;;;;;5028650;28;20243;-83
2022/11/27 04:11:04;;;;;;;7.93;7.13;;;4.90;99.90;;;;;;5027913;28;20205;-82
2022/11/27 04:13:30;;;;;;;8.30;7.13;;;4.90;99.90;;;;;;5027349;28;20553;-82
2022/11/27 04:16:00;;;;;;;13.00;7.73;;;5.00;99.90;;;;;;5027888;28;20209;-83
2022/11/27 04:18:26;;;;;;;10.07;8.03;;;4.90;99.90;;;;;;5028823;28;20365;-82
2022/11/27 04:20:52;;;;;;;9.80;6.83;;;4.90;99.90;;;;;;5027557;28;20232;-82
2022/11/27 04:23:17;;;;;;;7.50;6.67;;;4.90;99.90;;;;;;5026654;28;20196;-82
2022/11/27 04:25:43;;;;;;;8.07;7.27;;;4.90;99.90;;;;;;5009233;28;20174;-82
2022/11/27 04:28:09;;;;;;;8.90;7.03;;;4.90;99.90;;;;;;5026541;28;20253;-83
2022/11/27 04:30:34;;;;;;;10.87;7.73;;;5.00;99.90;;;;;;5024682;28;20220;-82
2022/11/27 04:33:00;;;;;;;8.90;8.00;;;5.00;99.90;;;;;;5026317;28;20193;-82
2022/11/27 04:35:26;;;;;;;8.93;7.43;;;5.10;99.90;;;;;;5025777;28;20185;-83
2022/11/27 04:37:52;;;;;;;10.40;7.83;;;5.10;99.90;;;;;;5026026;28;20185;-81
2022/11/27 04:40:18;;;;;;;9.67;7.70;;;5.10;99.90;;;;;;5026319;28;20213;-82
2022/11/27 04:42:43;;;;;;;8.60;7.37;;;5.20;99.90;;;;;;5008906;28;20276;-81
2022/11/27 04:45:09;;;;;;;8.90;7.57;;;5.20;99.90;;;;;;5026741;28;20193;-82
2022/11/27 04:47:35;;;;;;;9.13;7.30;;;5.30;99.90;;;;;;5025658;28;20327;-83
2022/11/27 04:50:01;;;;;;;8.23;7.30;;;5.30;99.90;;;;;;5009446;28;20675;-82
2022/11/27 04:52:26;;;;;;;8.77;7.53;;;5.40;99.90;;;;;;5008979;28;20221;-83
2022/11/27 04:54:52;;;;;;;10.00;7.97;;;5.30;99.90;;;;;;5009114;28;20185;-82
2022/11/27 04:57:18;;;;;;;9.77;8.17;;;5.30;99.90;;;;;;5009296;28;20283;-81
2022/11/27 04:59:43;;;;;;;8.30;7.37;;;5.20;99.90;;;;;;5026631;28;20213;-82
2022/11/27 05:02:09;;;;;;;8.13;6.80;;;5.20;99.90;;;;;;5025979;28;20225;-83
2022/11/27 05:04:35;;;;;;;9.77;8.03;;;5.20;99.90;;;;;;5025835;28;20193;-82
2022/11/27 05:07:00;;;;;;;10.87;7.57;;;5.30;99.90;;;;;;5025167;28;20178;-82
2022/11/27 05:09:26;;;;;;;10.43;7.67;;;5.30;99.90;;;;;;5008601;28;20196;-82
2022/11/27 05:11:52;;;;;;;10.43;7.83;;;5.40;99.90;;;;;;5026565;28;20257;-82
2022/11/27 05:14:18;;;;;;;10.70;7.40;;;5.40;99.90;;;;;;5026768;28;20252;-82
2022/11/27 05:16:55;;;;;;;9.93;8.00;;;5.30;99.90;;;;;;5026907;28;20272;-82
2022/11/27 05:19:22;;;;;;;10.30;8.30;;;5.30;99.90;;;;;;5021503;28;20173;-83
2022/11/27 05:21:49;;;;;;;11.30;8.33;;;5.30;99.90;;;;;;5023347;28;20308;-83
2022/11/27 05:24:16;;;;;;;11.60;8.30;;;5.30;99.90;;;;;;5025503;28;20197;-83
2022/11/27 05:26:42;;;;;;;9.37;7.97;;;5.30;99.90;;;;;;5027158;28;20184;-82
2022/11/27 05:29:09;;;;;;;10.40;8.00;;;5.40;99.90;;;;;;5009904;28;20207;-83
2022/11/27 05:31:35;;;;;;;11.00;8.57;;;5.40;99.90;;;;;;5026927;28;20213;-83
2022/11/27 05:34:02;;;;;;;10.73;8.23;;;5.40;99.90;;;;;;5025202;28;20182;-82
2022/11/27 05:36:28;;;;;;;9.67;7.93;;;5.40;99.90;;;;;;5026082;28;20232;-83
2022/11/27 05:38:54;;;;;;;8.77;7.77;;;5.50;99.90;;;;;;5025915;28;20185;-81
2022/11/27 05:41:20;;;;;;;8.10;7.30;;;5.40;99.90;;;;;;5026293;28;20267;-82
2022/11/27 05:43:46;;;;;;;9.70;8.40;;;5.50;99.90;;;;;;5025510;28;20185;-82
2022/11/27 05:46:14;;;;;;;9.83;8.37;;;5.50;99.90;;;;;;5008384;28;20268;-83
2022/11/27 05:48:40;;;;;;;11.03;9.07;;;5.40;99.90;;;;;;5025321;28;20174;-83
2022/11/27 05:51:06;;;;;;;12.70;8.93;;;5.40;99.90;;;;;;5024480;28;20209;-83
2022/11/27 05:53:32;;;;;;;9.30;8.13;;;5.30;99.90;;;;;;5023980;28;20193;-83
2022/11/27 05:56:09;;;;;;;8.73;7.40;;;5.40;99.90;;;;;;5024106;28;20234;-83
2022/11/27 05:58:36;;;;;;;9.67;8.67;;;5.50;99.90;;;;;;5018382;28;20276;-82
2022/11/27 06:01:02;;;;;;;11.00;8.13;;;5.40;99.90;;;;;;5024420;28;20205;-83
2022/11/27 06:03:28;;;;;;;12.30;9.10;;;5.50;99.90;;;;;;5024180;28;20279;-82
2022/11/27 06:05:53;;;;;;;10.27;8.70;;;5.50;99.90;;;;;;5025423;28;20181;-82
2022/11/27 06:08:20;;;;;;;9.70;8.70;;;5.40;99.90;;;;;;5023456;28;20268;-82
2022/11/27 06:10:46;;;;;;;9.47;8.47;;;5.40;99.90;;;;;;5024366;28;20208;-81
2022/11/27 06:13:12;;;;;;;9.13;8.20;;;5.30;99.90;;;;;;4995052;28;20212;-81
2022/11/27 06:15:39;;;;;;;10.20;8.97;;;5.40;99.90;;;;;;5024298;28;20267;-82
2022/11/27 06:18:05;;;;;;;10.00;9.00;;;5.50;99.90;;;;;;5025001;28;20245;-82
2022/11/27 06:20:31;;;;;;;11.97;9.27;;;5.50;99.90;;;;;;5023786;28;20228;-82
2022/11/27 06:22:57;;;;;;;11.87;8.83;;;5.40;99.90;;;;;;5025882;28;20385;-82
2022/11/27 06:25:24;;;;;;;11.43;9.30;;;5.30;99.90;;;;;;5024471;28;20185;-82
2022/11/27 06:27:50;;;;;;;13.83;9.53;;;5.30;99.90;;;;;;5020763;28;20204;-83
2022/11/27 06:30:16;;;;;;;9.57;8.13;;;5.30;99.90;;;;;;5008110;28;20670;-82
2022/11/27 06:32:42;;;;;;;11.57;9.33;;;5.30;99.90;;;;;;5004585;28;20211;-83
2022/11/27 06:35:08;;;;;;;11.23;8.73;;;5.20;99.90;;;;;;5028373;28;20182;-82
2022/11/27 06:37:34;;;;;;;10.20;8.60;;;5.20;99.90;;;;;;5029099;28;20182;-82
2022/11/27 06:40:00;;;;;;;13.30;8.90;;;5.20;99.90;;;;;;5028739;28;20192;-82
2022/11/27 06:42:30;;;;;;;13.70;10.23;;;5.30;99.90;;;;;;5029566;28;20201;-82
2022/11/27 06:44:56;;;;;;;10.80;9.37;;;5.30;99.90;;;;;;5028412;28;20180;-80
2022/11/27 06:47:22;;;;;;;12.10;9.27;;;5.30;99.90;;;;;;5028252;28;20201;-83
2022/11/27 06:49:48;;;;;;;11.67;9.67;;;5.30;99.90;;;;;;5028720;28;20173;-82
2022/11/27 06:52:13;;;;;;;11.27;9.60;;;5.30;99.90;;;;;;5025501;28;20240;-82
2022/11/27 06:54:39;;;;;;;10.77;8.67;;;5.30;99.90;;;;;;5027253;28;20268;-82
2022/11/27 06:57:05;;;;;;;10.60;9.00;;;5.20;99.90;;;;;;5029734;28;20186;-82
2022/11/27 06:59:31;;;;;;;10.53;8.73;;;5.20;99.90;;;;;;5011878;28;20258;-82
2022/11/27 07:01:56;;;;;;;9.50;8.53;;;5.20;99.90;;;;;;5028363;28;20283;-83
2022/11/27 07:04:22;;;;;;;9.03;7.73;;;5.20;99.90;;;;;;5005931;28;20196;-82
2022/11/27 07:06:47;;;;;;;12.73;9.63;;;5.10;99.90;;;;;;5027440;28;20181;-82
2022/11/27 07:09:14;;;;;;;12.50;10.50;;;5.10;99.90;;;;;;5028525;28;20608;-82
2022/11/27 07:11:39;;;;;;;15.17;12.10;;;4.90;99.90;;;;;;5027679;28;20679;-82
2022/11/27 07:14:05;;;;;;;13.93;11.50;;;4.70;99.90;;;;;;5026632;28;20256;-82
2022/11/27 07:16:34;;;;;;;10.70;9.10;;;4.70;99.90;;;;;;5026925;28;20188;-82
2022/11/27 07:19:02;;;;;;;11.67;9.27;;;4.80;99.90;;;;;;5024262;28;20185;-82
2022/11/27 07:21:28;;;;;;;11.30;9.07;;;4.90;99.90;;;;;;5016689;28;20292;-82
2022/11/27 07:23:55;;;;;;;11.43;9.17;;;4.80;99.90;;;;;;5024119;28;20228;-82
2022/11/27 07:26:23;;;;;;;10.20;8.57;;;4.80;99.90;;;;;;5025328;28;20174;-82
2022/11/27 07:28:50;;;;;;;11.67;9.30;;;4.80;99.90;;;;;;5006686;28;20197;-82
2022/11/27 07:31:21;;;;;;;12.70;9.77;;;4.80;99.90;;;;;;5023718;28;20206;-82
2022/11/27 07:33:48;;;;;;;11.80;10.40;;;4.70;99.90;;;;;;5024063;28;20181;-81
2022/11/27 07:36:22;;;;;;;18.20;12.00;;;4.80;99.90;;;;;;5024669;28;20177;-82
2022/11/27 07:38:48;;;;;;;18.83;15.47;;;4.70;99.90;;;;;;5008656;28;20235;-84
2022/11/27 07:41:15;;;;;;;16.57;14.73;;;4.70;99.90;;;;;;5028520;28;20233;-84
2022/11/27 07:43:43;;;;;;;14.63;8.97;;;4.60;99.90;;;;;;5028374;28;20272;-83
2022/11/27 07:46:15;;;;;;;11.07;9.07;;;4.60;99.90;;;;;;5027842;28;20193;-83
2022/11/27 07:48:41;;;;;;;13.37;11.97;;;4.70;99.90;;;;;;5028115;28;20170;-83
2022/11/27 07:51:09;;;;;;;15.87;13.30;;;4.70;99.90;;;;;;5028682;28;20213;-83
2022/11/27 07:53:37;;;;;;;13.03;11.47;;;4.80;99.90;;;;;;5028763;28;20674;-83
2022/11/27 07:56:04;;;;;;;12.03;10.30;;;4.80;99.90;;;;;;5026911;28;20197;-82
2022/11/27 07:58:29;;;;;;;10.90;9.53;;;4.80;99.90;;;;;;5027371;28;20212;-82
2022/11/27 08:00:55;;;;;;;14.10;10.23;;;4.90;99.90;;;;;;5027317;28;20213;-82
2022/11/27 08:03:21;;;;;;;19.40;12.30;;;4.90;99.90;;;;;;5027605;28;20265;-82
2022/11/27 08:05:47;;;;;;;18.07;14.10;;;4.80;99.90;;;;;;5028617;28;20192;-83
2022/11/27 08:08:13;;;;;;;20.57;13.97;;;4.80;99.90;;;;;;5029591;28;20185;-82
2022/11/27 08:10:39;;;;;;;15.60;11.73;;;4.90;99.90;;;;;;5028924;28;20215;-82
2022/11/27 08:13:05;;;;;;;22.23;14.80;;;5.00;99.90;;;;;;5028823;28;20185;-82
2022/11/27 08:15:32;;;;;;;28.17;14.00;;;4.90;99.90;;;;;;5028085;28;20189;-82
2022/11/27 08:17:57;;;;;;;14.93;11.53;;;4.80;99.90;;;;;;5033675;28;20197;-81
2022/11/27 08:20:23;;;;;;;12.87;10.60;;;4.70;99.90;;;;;;5002697;28;20229;-80
2022/11/27 08:22:49;;;;;;;19.03;10.20;;;4.70;99.90;;;;;;5016773;28;20189;-82
2022/11/27 08:25:15;;;;;;;21.33;9.83;;;4.70;99.90;;;;;;5027664;28;20189;-82
2022/11/27 08:27:40;;;;;;;17.87;9.83;;;4.70;99.90;;;;;;5003250;28;20201;-84
2022/11/27 08:30:07;;;;;;;12.57;10.07;;;4.70;99.90;;;;;;5028662;28;20186;-83
2022/11/27 08:32:33;;;;;;;16.50;12.17;;;4.80;99.90;;;;;;5027142;28;20233;-81
2022/11/27 08:34:59;;;;;;;12.87;10.13;;;4.90;99.90;;;;;;5027198;28;20213;-85
2022/11/27 08:37:24;;;;;;;12.53;10.70;;;5.00;99.90;;;;;;5028074;28;20189;-82
2022/11/27 08:39:50;;;;;;;17.33;11.63;;;5.10;99.90;;;;;;5033958;28;20243;-83
2022/11/27 08:42:16;;;;;;;13.27;10.90;;;5.20;99.90;;;;;;5027187;28;20213;-84
2022/11/27 08:44:41;;;;;;;15.07;10.83;;;5.20;99.90;;;;;;5026850;28;20244;-82
2022/11/27 08:47:08;;;;;;;13.47;9.43;;;5.20;99.90;;;;;;5036775;28;20182;-83
2022/11/27 08:49:33;;;;;;;12.43;9.37;;;5.20;99.90;;;;;;5027310;28;20232;-82
2022/11/27 08:51:59;;;;;;;16.13;10.37;;;5.30;99.90;;;;;;5028371;28;20202;-80
2022/11/27 08:54:25;;;;;;;20.33;10.83;;;5.20;99.90;;;;;;5027936;28;20216;-82
2022/11/27 08:56:51;;;;;;;15.37;10.37;;;5.00;99.90;;;;;;5028736;28;20228;-82
2022/11/27 08:59:17;;;;;;;13.50;10.63;;;4.80;99.90;;;;;;5025270;28;20345;-83
2022/11/27 09:01:43;;;;;;;14.93;10.90;;;4.90;99.90;;;;;;5031379;28;20209;-82
2022/11/27 09:04:09;;;;;;;13.97;11.07;;;5.00;99.90;;;;;;5029692;28;20184;-82
2022/11/27 09:06:35;;;;;;;16.73;11.47;;;5.10;99.90;;;;;;5029683;28;20178;-83
2022/11/27 09:09:04;;;;;;;17.53;13.47;;;5.20;99.90;;;;;;5028789;28;20181;-83
2022/11/27 09:11:31;;;;;;;33.57;26.97;;;5.30;99.90;;;;;;5028786;28;20209;-82
2022/11/27 09:13:58;;;;;;;12.37;11.07;;;5.30;99.90;;;;;;5029652;28;20189;-83
2022/11/27 09:16:24;;;;;;;13.47;10.70;;;5.40;99.90;;;;;;5030037;28;20741;-83
2022/11/27 09:18:53;;;;;;;12.87;10.80;;;5.50;99.90;;;;;;5030305;28;20189;-83
2022/11/27 09:21:20;;;;;;;11.73;10.43;;;5.50;99.90;;;;;;5030610;28;20241;-83
2022/11/27 09:23:46;;;;;;;12.83;11.00;;;5.60;99.90;;;;;;5029760;28;20216;-83
2022/11/27 09:26:15;;;;;;;12.47;10.93;;;5.70;99.90;;;;;;5032330;28;20182;-82
2022/11/27 09:28:42;;;;;;;13.93;11.90;;;5.50;99.90;;;;;;5029564;28;20243;-82
2022/11/27 09:31:10;;;;;;;11.97;10.20;;;5.50;99.90;;;;;;5028102;28;20205;-82
2022/11/27 09:33:37;;;;;;;13.40;10.70;;;5.60;99.90;;;;;;5029406;28;20201;-82
2022/11/27 09:36:06;;;;;;;14.13;12.07;;;5.60;99.90;;;;;;5008690;28;20189;-82
2022/11/27 09:38:32;;;;;;;13.43;11.13;;;5.70;99.90;;;;;;5024572;28;20185;-83
2022/11/27 09:41:20;;;;;;;19.17;17.27;;;5.80;99.90;;;;;;5029467;28;20220;-82
2022/11/27 09:44:15;;;;;;;22.13;20.03;;;5.80;99.90;;;;;;5007968;28;20327;-83
2022/11/27 09:46:41;;;;;;;14.83;11.90;;;5.80;99.90;;;;;;4984857;28;20285;-84
2022/11/27 09:49:18;;;;;;;13.77;12.27;;;5.90;99.90;;;;;;5027543;28;20284;-82
2022/11/27 09:52:14;;;;;;;15.77;12.30;;;5.80;99.90;;;;;;5027504;28;20227;-82
2022/11/27 09:54:53;;;;;;;13.40;11.40;;;5.60;99.90;;;;;;5028442;28;20185;-83
2022/11/27 09:57:29;;;;;;;16.07;14.47;;;5.60;99.90;;;;;;5029375;28;20197;-83
2022/11/27 09:59:59;;;;;;;12.67;10.73;;;5.80;99.90;;;;;;5029505;28;20197;-83
2022/11/27 10:02:34;;;;;;;13.23;11.73;;;5.70;99.90;;;;;;5012761;28;20228;-81
2022/11/27 10:05:06;;;;;;;14.60;12.47;;;5.80;99.90;;;;;;5011455;28;20193;-81
2022/11/27 10:08:08;;;;;;;15.50;11.80;;;5.60;99.90;;;;;;5029448;28;20666;-82
2022/11/27 10:10:54;;;;;;;20.00;17.90;;;5.70;99.90;;;;;;5030698;28;20185;-82
2022/11/27 10:13:23;;;;;;;15.80;12.30;;;5.80;99.90;;;;;;5010663;28;20204;-85
2022/11/27 10:16:00;;;;;;;14.93;12.93;;;5.80;99.90;;;;;;5031601;28;20196;-82
2022/11/27 10:18:54;;;;;;;16.27;12.10;;;5.90;99.90;;;;;;5013401;28;20189;-82
2022/11/27 10:21:45;;;;;;;19.07;14.50;;;5.90;99.90;;;;;;5023369;28;20277;-82
2022/11/27 10:24:20;;;;;;;16.40;14.10;;;5.40;99.90;;;;;;5030104;28;20193;-82
2022/11/27 10:26:49;;;;;;;17.27;13.37;;;5.40;99.90;;;;;;5023274;28;20197;-82
2022/11/27 10:29:21;;;;;;;18.77;14.00;;;5.30;99.90;;;;;;5030272;28;20174;-83
2022/11/27 10:31:57;;;;;;;16.10;13.73;;;5.30;99.90;;;;;;5013389;28;20221;-84
2022/11/27 10:34:44;;;;;;;19.10;15.00;;;5.30;99.90;;;;;;5031043;28;20220;-83
2022/11/27 10:37:42;;;;;;;19.27;14.77;;;5.20;99.90;;;;;;5031160;28;20622;-84
2022/11/27 10:40:11;;;;;;;21.50;15.80;;;5.50;99.90;;;;;;5006158;28;20264;-83
2022/11/27 10:43:03;;;;;;;19.23;15.67;;;5.70;99.90;;;;;;5018403;28;20208;-83
2022/11/27 10:45:48;;;;;;;25.33;17.60;;;5.90;99.90;;;;;;5030392;28;20196;-83
2022/11/27 10:48:14;;;;;;;20.43;15.47;;;6.00;99.90;;;;;;5005719;28;20188;-83
2022/11/27 10:50:41;;;;;;;18.70;15.00;;;5.90;99.90;;;;;;5026121;28;20190;-81
2022/11/27 10:53:21;;;;;;;17.33;14.37;;;5.90;99.90;;;;;;5029048;28;20281;-82
2022/11/27 10:56:05;;;;;;;16.93;14.10;;;5.90;99.90;;;;;;5030462;28;20181;-82
2022/11/27 10:58:36;;;;;;;18.27;15.23;;;5.90;99.90;;;;;;5025972;28;20824;-83
2022/11/27 11:01:15;;;;;;;16.23;13.43;;;5.80;99.90;;;;;;5026435;28;20213;-82
2022/11/27 11:03:41;;;;;;;16.07;14.03;;;5.80;99.90;;;;;;5028097;28;20173;-83
2022/11/27 11:06:17;;;;;;;15.07;12.37;;;5.50;99.90;;;;;;5011446;28;20200;-83
2022/11/27 11:08:43;;;;;;;15.20;12.60;;;5.40;99.90;;;;;;5011039;28;20189;-83
2022/11/27 11:11:09;;;;;;;15.60;13.60;;;5.60;99.90;;;;;;5026860;28;20240;-83
2022/11/27 11:13:40;;;;;;;16.93;14.53;;;5.60;99.90;;;;;;5027116;28;20192;-83
2022/11/27 11:16:20;;;;;;;13.93;12.43;;;5.80;99.90;;;;;;5028932;28;20221;-83
2022/11/27 11:18:51;;;;;;;12.73;11.27;;;5.80;99.90;;;;;;5027693;28;20238;-83
2022/11/27 11:21:23;;;;;;;14.13;12.30;;;6.00;99.90;;;;;;5029479;28;20237;-83
2022/11/27 11:23:56;;;;;;;13.30;11.90;;;6.10;99.90;;;;;;5028048;28;20214;-83
2022/11/27 11:26:22;;;;;;;16.63;13.57;;;6.20;99.90;;;;;;5034750;28;20189;-83
2022/11/27 11:28:52;;;;;;;15.93;12.70;;;6.30;99.90;;;;;;5029212;28;20186;-82
2022/11/27 11:31:27;;;;;;;15.17;13.60;;;6.40;99.90;;;;;;5027795;28;20308;-83
2022/11/27 11:33:59;;;;;;;14.13;12.67;;;6.40;99.90;;;;;;5021720;28;20184;-81
2022/11/27 11:36:25;;;;;;;13.37;11.80;;;6.50;99.90;;;;;;5028130;28;20193;-83
2022/11/27 11:38:51;;;;;;;14.23;12.77;;;6.50;99.90;;;;;;5027986;28;20208;-81
2022/11/27 11:41:18;;;;;;;13.80;12.40;;;6.50;99.90;;;;;;5010950;28;20213;-83
2022/11/27 11:44:04;;;;;;;16.00;13.13;;;6.50;99.90;;;;;;5028967;28;20197;-83
2022/11/27 11:46:32;;;;;;;13.40;11.93;;;6.50;99.90;;;;;;5024903;28;20181;-83
2022/11/27 11:49:22;;;;;;;13.33;11.93;;;6.50;99.90;;;;;;5027262;28;20196;-82
2022/11/27 11:52:06;;;;;;;15.20;13.70;;;6.50;99.90;;;;;;5028236;28;20240;-82
2022/11/27 11:54:46;;;;;;;14.53;12.83;;;6.50;99.90;;;;;;5025574;28;20295;-83
2022/11/27 11:57:47;;;;;;;16.20;13.27;;;6.60;99.90;;;;;;5022834;28;20203;-84
2022/11/27 12:00:21;;;;;;;14.60;12.63;;;6.50;99.90;;;;;;5028323;28;20256;-83
2022/11/27 12:03:02;;;;;;;15.60;14.00;;;6.40;99.90;;;;;;5027575;28;20228;-83
2022/11/27 12:05:52;;;;;;;15.83;13.37;;;6.20;99.90;;;;;;5027635;28;20181;-84
2022/11/27 12:08:21;;;;;;;14.43;12.43;;;6.20;99.90;;;;;;5028543;28;20182;-83
2022/11/27 12:10:53;;;;;;;13.53;12.17;;;6.20;99.90;;;;;;5028488;28;20220;-84
2022/11/27 12:13:55;;;;;;;17.43;13.47;;;6.20;99.90;;;;;;5028003;28;20283;-83
2022/11/27 12:16:38;;;;;;;15.27;13.70;;;6.30;99.90;;;;;;5027785;28;20216;-83
2022/11/27 12:19:19;;;;;;;14.37;12.73;;;6.30;99.90;;;;;;5028635;28;20185;-83
2022/11/27 12:22:21;;;;;;;14.37;12.97;;;6.50;99.90;;;;;;5029005;28;20232;-82
2022/11/27 12:24:53;;;;;;;13.73;12.30;;;6.60;99.90;;;;;;5028854;28;20209;-81
2022/11/27 12:27:55;;;;;;;15.00;13.27;;;6.60;99.90;;;;;;5028754;28;20189;-82
2022/11/27 12:30:25;;;;;;;14.13;11.97;;;6.30;99.90;;;;;;5026565;28;20208;-84
2022/11/27 12:33:03;;;;;;;14.43;12.93;;;5.90;99.90;;;;;;5015089;28;20185;-83
2022/11/27 12:35:43;;;;;;;15.20;13.17;;;5.90;99.90;;;;;;5024794;28;20272;-82
2022/11/27 12:38:27;;;;;;;14.50;12.97;;;5.80;99.90;;;;;;5026452;28;20185;-83
2022/11/27 12:41:14;;;;;;;16.17;12.43;;;5.70;99.90;;;;;;5023363;28;20205;-82
2022/11/27 12:43:54;;;;;;;13.60;12.20;;;5.90;99.90;;;;;;5025382;28;20189;-82
2022/11/27 12:46:36;;;;;;;13.97;12.20;;;6.00;99.90;;;;;;5023921;28;20185;-82
2022/11/27 12:49:16;;;;;;;13.67;12.27;;;5.90;99.90;;;;;;5024929;28;20591;-82
2022/11/27 12:52:02;;;;;;;11.93;10.73;;;5.80;99.90;;;;;;5021485;28;20216;-83
2022/11/27 12:54:34;;;;;;;13.47;12.10;;;5.90;99.90;;;;;;5023351;28;20173;-83
2022/11/27 12:57:06;;;;;;;12.77;11.47;;;6.20;99.90;;;;;;5022055;28;20354;-83
2022/11/27 12:59:34;;;;;;;13.67;12.23;;;6.30;99.90;;;;;;5025406;28;20178;-82
2022/11/27 13:02:30;;;;;;;13.10;11.50;;;6.30;99.90;;;;;;5025265;28;20221;-85
2022/11/27 13:05:08;;;;;;;13.47;11.87;;;6.40;99.90;;;;;;5023937;28;20200;-81